메인 페이지
METAR-TAF:

METAR-TAF

공항 :

바하왈푸르, 파키스탄

위도: 29-20-53N, 경도: 71-43-04E, 고도: 119m

METAR: 누락

시각: 05:24 (00:24 UTC)

예보

예보는 2 시간 24분 전, 22:00시(UTC)에 발표되었습니다.
예보 대상 시간: 22일 00시부터 22일 18시까지 (UTC)
10kt
시정: 4000m
연기
확률 30% :
일시적
22일 01시부터 22일 04시까지 (UTC)
kt
시정: 2000m
박무

TAF: OPBW 212200Z 2200/2218 18010KT 4000 FU NSC TN24/2201Z TX37/2210Z PROB30 TEMPO 2201/2204 00000KT 2000 BR NSC

4,000개 이상의 공항 관측 자료 및 예보 (METAR 및 TAF 보고).

지도상에서 검색 가능한 기상관측소가 노란 점과 빨간 점으로 표시되어 있습니다.

기상관측소 명을 보려면 표시 위로 마우스를 이동하세요.

날씨 관측과 예보를 보려면 클릭하세요.

지도 변경 : 확대하려면 엑스 표시가 있는 녹색 버튼, 축소하려면 빼기 표시가 있는 녹색 버튼, 다음 페이지의 지도를 보려면 녹색 화살표를 클릭하세요.


METAR-TAF: